createdAt,value
2022-09-11T00:04:46.698Z,95977.69
2022-09-11T00:09:48.927Z,95992.06
2022-09-11T00:14:51.962Z,95978.56
2022-09-11T00:19:54.006Z,95987.09
2022-09-11T00:24:56.450Z,95978.88
2022-09-11T00:29:58.856Z,95992.88
2022-09-11T00:35:01.130Z,95985.47
2022-09-11T00:40:04.316Z,95981.19
2022-09-11T00:45:08.145Z,95991.38
2022-09-11T00:50:15.420Z,95995.25
2022-09-11T00:55:20.118Z,95982.06
2022-09-11T01:00:23.091Z,95986.63
2022-09-11T01:05:29.256Z,95979.69
2022-09-11T01:10:42.671Z,95968.59
2022-09-11T01:16:26.233Z,95972.47
2022-09-11T01:21:56.618Z,95988.66
2022-09-11T01:27:08.009Z,95994.28
2022-09-11T01:32:24.217Z,95994.41
2022-09-11T01:37:43.163Z,95991.88
2022-09-11T01:42:50.063Z,95983.09
2022-09-11T01:47:53.530Z,95981.44
2022-09-11T01:52:59.387Z,95978.91
2022-09-11T01:58:23.490Z,95988.34
2022-09-11T02:03:38.469Z,95987.91
2022-09-11T02:08:56.193Z,95993.84
2022-09-11T02:14:26.128Z,95994.56
2022-09-11T02:19:31.591Z,95998.19
2022-09-11T02:24:34.503Z,95981.56
2022-09-11T02:29:37.598Z,95992.97
2022-09-11T02:34:43.274Z,95990.13
2022-09-11T02:40:19.708Z,95987.34
2022-09-11T02:45:41.610Z,96001.00
2022-09-11T02:50:53.389Z,95994.66
2022-09-11T02:56:06.398Z,95994.16
2022-09-11T03:01:12.153Z,95987.25
2022-09-11T03:06:22.195Z,95985.28
2022-09-11T03:11:24.530Z,95990.09
2022-09-11T03:16:26.921Z,95992.78
2022-09-11T03:21:29.332Z,95983.59
2022-09-11T03:26:33.220Z,95982.97
2022-09-11T03:31:39.083Z,95975.16
2022-09-11T03:36:42.288Z,95986.34
2022-09-11T03:41:44.437Z,95986.72
2022-09-11T03:46:46.658Z,95996.81
2022-09-11T03:51:48.909Z,96004.22
2022-09-11T03:56:51.086Z,95998.38
2022-09-11T04:01:53.272Z,96003.78
2022-09-11T04:06:56.017Z,96005.72
2022-09-11T04:11:59.013Z,96011.34
2022-09-11T04:17:03.366Z,96014.38
2022-09-11T04:22:05.666Z,96008.16
2022-09-11T04:27:13.973Z,96022.03
2022-09-11T04:32:16.574Z,96019.06
2022-09-11T04:37:20.024Z,96015.19
2022-09-11T04:42:22.363Z,96015.72
2022-09-11T04:47:26.673Z,96016.19
2022-09-11T04:52:31.307Z,96016.22
2022-09-11T04:57:33.586Z,96008.03
2022-09-11T05:02:36.736Z,96003.72
2022-09-11T05:07:40.462Z,96012.81
2022-09-11T05:12:44.610Z,96010.56
2022-09-11T05:17:48.506Z,96009.44
2022-09-11T05:22:53.771Z,96000.59
2022-09-11T05:28:00.549Z,96014.31
2022-09-11T05:33:02.774Z,96005.69
2022-09-11T05:38:04.970Z,95996.75
2022-09-11T05:43:07.271Z,95997.00
2022-09-11T05:48:10.521Z,96004.44
2022-09-11T05:53:15.705Z,95996.22
2022-09-11T05:58:19.593Z,95991.75
2022-09-11T06:03:22.391Z,95997.41
2022-09-11T06:08:37.284Z,95994.06
2022-09-11T06:13:42.697Z,95986.69
2022-09-11T06:18:46.122Z,95993.88
2022-09-11T06:23:50.450Z,95984.19
2022-09-11T06:28:54.662Z,95980.22
2022-09-11T06:33:59.036Z,95998.75
2022-09-11T06:39:02.759Z,95985.72
2022-09-11T06:44:07.479Z,95985.63
2022-09-11T06:49:09.612Z,96000.53
2022-09-11T06:54:31.792Z,95995.41
2022-09-11T06:59:36.705Z,95978.47
2022-09-11T07:04:38.962Z,95987.06
2022-09-11T07:09:54.261Z,96004.19
2022-09-11T07:14:58.437Z,95991.97
2022-09-11T07:20:00.846Z,95985.66
2022-09-11T07:25:07.551Z,95989.44
2022-09-11T07:30:15.474Z,95990.13
2022-09-11T07:35:22.036Z,95995.31
2022-09-11T07:40:27.974Z,96011.88
2022-09-11T07:45:33.787Z,95999.50
2022-09-11T07:50:37.685Z,96004.94
2022-09-11T07:55:40.536Z,95997.84
2022-09-11T08:00:46.418Z,96002.84
2022-09-11T08:05:58.336Z,95999.94
2022-09-11T08:11:06.921Z,96014.28
2022-09-11T08:16:11.358Z,96000.31
2022-09-11T08:21:14.220Z,95983.91
2022-09-11T08:26:19.896Z,95979.13
2022-09-11T08:31:28.124Z,95985.53
2022-09-11T08:36:33.594Z,95989.19
2022-09-11T08:41:41.322Z,95979.13
2022-09-11T08:46:59.738Z,95969.69
2022-09-11T08:52:03.698Z,95958.97
2022-09-11T08:57:20.919Z,95969.66
2022-09-11T09:02:56.577Z,95945.22
2022-09-11T09:08:37.626Z,95946.09
2022-09-11T09:13:43.170Z,95946.09
2022-09-11T09:18:53.288Z,95949.22
2022-09-11T09:23:56.394Z,95941.38
2022-09-11T09:29:03.318Z,95945.44
2022-09-11T09:34:15.543Z,95938.56
2022-09-11T09:39:19.969Z,95933.41
2022-09-11T09:44:59.320Z,95931.72
2022-09-11T09:50:01.592Z,95921.94
2022-09-11T09:55:06.927Z,95909.84
2022-09-11T10:00:12.454Z,95914.41
2022-09-11T10:05:41.045Z,95912.13
2022-09-11T10:10:43.275Z,95899.69
2022-09-11T10:15:48.458Z,95906.91
2022-09-11T10:20:51.942Z,95892.44
2022-09-11T10:25:54.873Z,95904.94
2022-09-11T10:31:03.081Z,95911.91
2022-09-11T10:36:10.063Z,95894.03
2022-09-11T10:41:25.337Z,95898.38
2022-09-11T10:46:40.997Z,95899.03
2022-09-11T10:51:59.525Z,95896.34
2022-09-11T10:57:38.471Z,95890.47
2022-09-11T11:02:45.166Z,95877.59
2022-09-11T11:07:55.633Z,95885.56
2022-09-11T11:13:17.191Z,95876.50
2022-09-11T11:18:23.017Z,95881.34
2022-09-11T11:23:34.075Z,95873.53
2022-09-11T11:29:02.258Z,95863.00
2022-09-11T11:34:13.656Z,95860.72
2022-09-11T11:39:46.815Z,95861.09
2022-09-11T11:45:01.974Z,95842.72
2022-09-11T11:50:32.044Z,95827.53
2022-09-11T11:55:57.508Z,95844.19
2022-09-11T12:01:04.850Z,95825.34
2022-09-11T12:06:10.362Z,95790.97
2022-09-11T12:11:17.451Z,95808.97
2022-09-11T12:16:32.954Z,95808.34
2022-09-11T12:22:02.351Z,95794.91
2022-09-11T12:27:36.634Z,95808.16
2022-09-11T12:32:45.421Z,95802.31
2022-09-11T12:38:01.069Z,95771.88
2022-09-11T12:43:41.611Z,95797.78
2022-09-11T12:49:11.394Z,95766.78
2022-09-11T12:54:47.085Z,95793.88
2022-09-11T12:59:56.799Z,95758.75
2022-09-11T13:04:59.768Z,95772.25
2022-09-11T13:10:09.593Z,95742.88
2022-09-11T13:15:41.681Z,95757.19
2022-09-11T13:21:11.138Z,95775.44
2022-09-11T13:26:26.727Z,95770.50
2022-09-11T13:31:41.186Z,95740.88
2022-09-11T13:36:44.062Z,95741.53
2022-09-11T13:42:08.973Z,95737.59
2022-09-11T13:47:21.977Z,95748.03
2022-09-11T13:52:29.787Z,95750.22
2022-09-11T13:57:39.536Z,95739.06
2022-09-11T14:03:17.310Z,95721.13
2022-09-11T14:08:35.422Z,95751.50
2022-09-11T14:14:06.244Z,95711.31
2022-09-11T14:19:38.186Z,95748.63
2022-09-11T14:25:04.886Z,95741.44
2022-09-11T14:30:34.824Z,95744.00
2022-09-11T14:35:39.509Z,95749.41
2022-09-11T14:40:50.033Z,95749.22
2022-09-11T14:45:52.591Z,95758.16
2022-09-11T14:50:54.876Z,95730.91
2022-09-11T14:56:02.431Z,95717.66
2022-09-11T15:01:07.667Z,95741.16
2022-09-11T15:06:19.253Z,95700.22
2022-09-11T15:11:21.658Z,95694.41
2022-09-11T15:16:26.025Z,95700.84
2022-09-11T15:21:28.372Z,95686.94
2022-09-11T15:26:31.750Z,95678.03
2022-09-11T15:31:34.160Z,95705.31
2022-09-11T15:36:38.613Z,95713.66
2022-09-11T15:41:43.125Z,95687.22
2022-09-11T15:46:45.952Z,95686.19
2022-09-11T15:51:54.264Z,95675.94
2022-09-11T15:56:56.753Z,95688.56
2022-09-11T16:01:59.492Z,95713.53
2022-09-11T16:07:01.589Z,95684.88
2022-09-11T16:12:03.932Z,95702.13
2022-09-11T16:17:07.946Z,95727.66
2022-09-11T16:22:10.210Z,95712.44
2022-09-11T16:27:12.402Z,95717.31
2022-09-11T16:32:28.953Z,95726.19
2022-09-11T16:37:38.792Z,95743.69
2022-09-11T16:42:41.296Z,95731.25
2022-09-11T16:47:46.655Z,95718.91
2022-09-11T16:52:48.795Z,95718.72
2022-09-11T16:57:53.945Z,95731.09
2022-09-11T17:02:56.491Z,95720.81
2022-09-11T17:07:58.817Z,95740.28
2022-09-11T17:13:01.023Z,95769.84
2022-09-11T17:18:03.816Z,95753.53
2022-09-11T17:23:07.187Z,95760.47
2022-09-11T17:28:09.438Z,95780.56
2022-09-11T17:33:12.001Z,95779.66
2022-09-11T17:38:14.256Z,95797.25
2022-09-11T17:43:18.259Z,95809.22
2022-09-11T17:48:23.481Z,95778.38
2022-09-11T17:53:25.806Z,95818.00
2022-09-11T17:58:29.624Z,95840.44
2022-09-11T18:03:33.779Z,95833.78
2022-09-11T18:08:42.071Z,95796.41
2022-09-11T18:13:44.447Z,95831.75
2022-09-11T18:18:46.739Z,95829.75
2022-09-11T18:23:49.858Z,95842.91
2022-09-11T18:29:01.100Z,95846.59
2022-09-11T18:34:03.301Z,95852.34
2022-09-11T18:39:05.920Z,95853.06
2022-09-11T18:44:11.232Z,95812.78
2022-09-11T18:49:14.767Z,95861.59
2022-09-11T18:54:20.987Z,95859.75
2022-09-11T18:59:23.360Z,95852.63
2022-09-11T19:04:26.295Z,95867.00
2022-09-11T19:09:31.747Z,95891.97
2022-09-11T19:14:36.095Z,95898.34
2022-09-11T19:19:38.377Z,95897.72
2022-09-11T19:24:41.159Z,95899.72
2022-09-11T19:29:43.328Z,95865.75
2022-09-11T19:34:47.524Z,95883.03
2022-09-11T19:39:51.644Z,95890.09
2022-09-11T19:44:56.306Z,95881.34
2022-09-11T19:50:00.196Z,95894.84
2022-09-11T19:55:04.016Z,95864.44
2022-09-11T20:00:06.718Z,95874.09
2022-09-11T20:05:09.667Z,95881.47
2022-09-11T20:10:11.735Z,95871.28
2022-09-11T20:15:13.976Z,95900.50
2022-09-11T20:20:16.292Z,95893.13
2022-09-11T20:25:18.785Z,95904.53
2022-09-11T20:30:23.115Z,95873.94
2022-09-11T20:35:30.519Z,95893.13
2022-09-11T20:40:32.645Z,95888.28
2022-09-11T20:45:35.625Z,95878.16
2022-09-11T20:50:37.676Z,95899.38
2022-09-11T20:55:39.897Z,95910.91
2022-09-11T21:00:46.358Z,95904.59
2022-09-11T21:05:48.725Z,95873.69
2022-09-11T21:10:50.971Z,95886.16
2022-09-11T21:15:53.355Z,95904.75
2022-09-11T21:20:56.909Z,95869.22
2022-09-11T21:25:59.578Z,95909.25
2022-09-11T21:31:01.947Z,95929.31
2022-09-11T21:36:04.693Z,95944.25
2022-09-11T21:41:09.242Z,95932.53
2022-09-11T21:46:11.578Z,95923.47
2022-09-11T21:51:16.501Z,95940.75
2022-09-11T21:56:21.216Z,95910.88
2022-09-11T22:01:25.278Z,95918.06
2022-09-11T22:06:28.084Z,95926.69
2022-09-11T22:11:30.251Z,95904.72
2022-09-11T22:16:33.276Z,95912.63
2022-09-11T22:21:35.381Z,95888.00
2022-09-11T22:26:37.455Z,95884.06
2022-09-11T22:31:39.973Z,95889.69
2022-09-11T22:36:42.410Z,95883.44
2022-09-11T22:41:44.521Z,95873.34
2022-09-11T22:46:48.951Z,95875.72
2022-09-11T22:51:51.405Z,95876.91
2022-09-11T22:56:53.589Z,95883.03
2022-09-11T23:01:55.777Z,95867.69
2022-09-11T23:07:16.878Z,95874.25
2022-09-11T23:12:18.936Z,95898.47
2022-09-11T23:17:21.002Z,95860.19
2022-09-11T23:22:23.154Z,95893.06
2022-09-11T23:27:25.237Z,95893.78
2022-09-11T23:32:27.542Z,95877.25
2022-09-11T23:37:29.714Z,95862.91
2022-09-11T23:42:32.060Z,95893.75
2022-09-11T23:47:34.195Z,95875.38
2022-09-11T23:52:36.931Z,95903.97
2022-09-11T23:57:39.203Z,95878.03
